createdAt,value
2022-12-01T00:01:35.713Z,26.37
2022-12-01T00:04:03.624Z,25.20
2022-12-01T00:06:31.644Z,22.20
2022-12-01T00:09:20.262Z,24.37
2022-12-01T00:11:48.947Z,25.47
2022-12-01T00:14:16.859Z,26.67
2022-12-01T00:16:46.207Z,26.27
2022-12-01T00:19:14.072Z,26.97
2022-12-01T00:21:41.765Z,27.97
2022-12-01T00:24:11.840Z,30.07
2022-12-01T00:26:39.765Z,28.40
2022-12-01T00:29:09.029Z,26.70
2022-12-01T00:31:37.033Z,28.37
2022-12-01T00:34:11.155Z,27.43
2022-12-01T00:36:39.630Z,31.13
2022-12-01T00:39:08.467Z,26.00
2022-12-01T00:41:36.212Z,28.73
2022-12-01T00:44:04.634Z,33.13
2022-12-01T00:46:32.383Z,20.37
2022-12-01T00:49:00.165Z,29.50
2022-12-01T00:51:29.342Z,26.73
2022-12-01T00:53:57.768Z,29.43
2022-12-01T00:56:25.521Z,30.27
2022-12-01T00:58:53.293Z,30.40
2022-12-01T01:01:21.249Z,28.93
2022-12-01T01:03:49.181Z,27.57
2022-12-01T01:06:17.134Z,28.20
2022-12-01T01:08:47.507Z,26.67
2022-12-01T01:11:15.284Z,28.97
2022-12-01T01:13:43.088Z,28.90
2022-12-01T01:16:16.250Z,30.63
2022-12-01T01:18:44.118Z,25.00
2022-12-01T01:21:15.547Z,27.90
2022-12-01T01:23:43.480Z,29.33
2022-12-01T01:26:17.608Z,28.83
2022-12-01T01:28:46.335Z,20.73
2022-12-01T01:31:17.936Z,25.80
2022-12-01T01:33:46.326Z,26.10
2022-12-01T01:36:15.765Z,29.00
2022-12-01T01:38:44.103Z,26.97
2022-12-01T01:41:14.193Z,25.77
2022-12-01T01:43:46.070Z,24.73
2022-12-01T01:46:17.274Z,25.53
2022-12-01T01:48:50.914Z,27.43
2022-12-01T01:51:24.545Z,21.70
2022-12-01T01:53:58.714Z,24.80
2022-12-01T01:56:29.140Z,25.77
2022-12-01T01:58:59.086Z,27.40
2022-12-01T02:01:26.938Z,31.63
2022-12-01T02:03:56.008Z,27.37
2022-12-01T02:06:24.660Z,23.83
2022-12-01T02:08:52.519Z,24.27
2022-12-01T02:11:55.880Z,20.33
2022-12-01T02:14:56.990Z,25.43
2022-12-01T02:17:41.860Z,25.93
2022-12-01T02:20:46.978Z,26.07
2022-12-01T02:23:51.409Z,21.77
2022-12-01T02:26:42.497Z,11.47
2022-12-01T02:29:53.753Z,22.23
2022-12-01T02:32:34.711Z,22.43
2022-12-01T02:35:16.449Z,22.00
2022-12-01T02:37:55.118Z,22.50
2022-12-01T02:40:30.515Z,21.17
2022-12-01T02:43:08.354Z,22.38
2022-12-01T02:45:46.415Z,22.03
2022-12-01T02:48:26.655Z,22.30
2022-12-01T02:51:01.530Z,22.50
2022-12-01T02:53:29.771Z,23.77
2022-12-01T02:55:59.451Z,24.67
2022-12-01T02:58:27.243Z,23.13
2022-12-01T03:01:18.131Z,22.23
2022-12-01T03:04:08.966Z,23.77
2022-12-01T03:06:52.321Z,24.80
2022-12-01T03:09:37.705Z,24.70
2022-12-01T03:12:19.225Z,25.30
2022-12-01T03:15:03.194Z,21.97
2022-12-01T03:17:38.957Z,24.43
2022-12-01T03:20:16.262Z,16.80
2022-12-01T03:22:51.858Z,24.77
2022-12-01T03:25:24.794Z,21.45
2022-12-01T03:28:20.298Z,29.13
2022-12-01T03:30:48.530Z,25.47
2022-12-01T03:33:29.717Z,28.03
2022-12-01T03:36:08.852Z,26.57
2022-12-01T03:38:40.102Z,30.60
2022-12-01T03:41:14.703Z,28.27
2022-12-01T03:43:52.723Z,31.07
2022-12-01T03:46:36.126Z,31.27
2022-12-01T03:49:05.679Z,31.67
2022-12-01T03:51:49.574Z,36.80
2022-12-01T03:54:26.745Z,27.03
2022-12-01T04:24:26.340Z,29.90
2022-12-01T04:30:33.964Z,33.55
2022-12-01T04:33:01.699Z,25.70
2022-12-01T04:35:29.439Z,29.93
2022-12-01T04:37:57.251Z,35.10
2022-12-01T04:40:26.429Z,33.90
2022-12-01T04:42:54.121Z,32.87
2022-12-01T04:45:22.076Z,31.87
2022-12-01T04:47:52.506Z,27.07
2022-12-01T04:50:20.240Z,32.47
2022-12-01T04:52:48.058Z,34.37
2022-12-01T04:55:15.973Z,31.97
2022-12-01T04:57:45.021Z,32.93
2022-12-01T05:00:14.544Z,33.20
2022-12-01T05:02:43.585Z,33.57
2022-12-01T05:05:12.046Z,33.07
2022-12-01T05:07:40.588Z,31.90
2022-12-01T05:10:09.397Z,33.03
2022-12-01T05:12:37.358Z,34.23
2022-12-01T05:15:08.307Z,29.27
2022-12-01T05:17:37.292Z,28.70
2022-12-01T05:20:26.383Z,29.53
2022-12-01T05:23:05.263Z,28.50
2022-12-01T05:25:34.869Z,30.80
2022-12-01T05:28:02.734Z,28.77
2022-12-01T05:30:31.757Z,29.10
2022-12-01T05:32:59.936Z,30.13
2022-12-01T05:35:27.676Z,29.40
2022-12-01T05:37:55.493Z,25.67
2022-12-01T05:40:23.335Z,26.97
2022-12-01T05:42:51.051Z,26.77
2022-12-01T05:45:19.074Z,27.40
2022-12-01T05:47:48.296Z,27.27
2022-12-01T05:50:16.303Z,28.73
2022-12-01T05:52:44.050Z,31.67
2022-12-01T05:55:11.871Z,30.97
2022-12-01T05:57:39.642Z,31.60
2022-12-01T06:00:09.454Z,31.77
2022-12-01T06:02:41.561Z,32.57
2022-12-01T06:05:11.198Z,30.47
2022-12-01T06:07:40.260Z,32.13
2022-12-01T06:10:10.018Z,32.57
2022-12-01T06:12:38.662Z,34.67
2022-12-01T06:15:08.389Z,32.23
2022-12-01T06:17:40.197Z,28.60
2022-12-01T06:20:12.108Z,32.40
2022-12-01T06:22:39.986Z,31.80
2022-12-01T06:25:09.516Z,30.93
2022-12-01T06:27:37.342Z,32.67
2022-12-01T06:30:07.066Z,29.70
2022-12-01T06:32:34.943Z,31.87
2022-12-01T06:35:03.151Z,31.87
2022-12-01T06:37:32.379Z,32.03
2022-12-01T06:40:00.116Z,31.63
2022-12-01T06:42:37.180Z,32.53
2022-12-01T06:45:18.240Z,32.73
2022-12-01T06:47:48.364Z,32.87
2022-12-01T06:50:16.370Z,33.60
2022-12-01T06:52:45.660Z,29.90
2022-12-01T06:55:14.245Z,30.30
2022-12-01T06:57:43.424Z,29.03
2022-12-01T07:00:13.616Z,30.17
2022-12-01T07:02:42.181Z,31.23
2022-12-01T07:05:13.589Z,29.90
2022-12-01T07:07:41.364Z,28.57
2022-12-01T07:10:14.266Z,26.30
2022-12-01T07:12:42.044Z,25.77
2022-12-01T07:15:11.040Z,28.00
2022-12-01T07:17:38.798Z,29.60
2022-12-01T07:20:10.136Z,26.17
2022-12-01T07:22:39.558Z,26.70
2022-12-01T07:25:08.171Z,27.80
2022-12-01T07:27:37.354Z,26.90
2022-12-01T07:30:07.210Z,25.47
2022-12-01T07:32:35.059Z,22.37
2022-12-01T07:35:02.899Z,28.93
2022-12-01T07:37:30.650Z,23.83
2022-12-01T07:39:58.533Z,26.50
2022-12-01T07:42:26.242Z,25.67
2022-12-01T07:44:55.371Z,24.73
2022-12-01T07:47:23.237Z,24.83
2022-12-01T07:49:51.277Z,28.33
2022-12-01T07:52:19.365Z,28.33
2022-12-01T07:54:47.136Z,26.97
2022-12-01T07:57:14.907Z,27.93
2022-12-01T07:59:42.618Z,28.97
2022-12-01T08:02:12.466Z,29.57
2022-12-01T08:04:40.407Z,31.07
2022-12-01T08:07:08.229Z,31.00
2022-12-01T08:09:36.224Z,32.53
2022-12-01T08:12:04.608Z,30.93
2022-12-01T08:14:32.340Z,33.50
2022-12-01T08:16:59.991Z,30.03
2022-12-01T08:19:29.232Z,26.50
2022-12-01T08:21:57.332Z,30.03
2022-12-01T08:24:25.580Z,26.03
2022-12-01T08:26:53.431Z,27.13
2022-12-01T08:29:21.211Z,28.87
2022-12-01T08:31:48.991Z,30.40
2022-12-01T08:34:16.839Z,27.93
2022-12-01T08:36:46.099Z,25.60
2022-12-01T08:39:14.169Z,25.20
2022-12-01T08:41:42.206Z,23.63
2022-12-01T08:44:10.798Z,24.20
2022-12-01T08:46:38.735Z,24.27
2022-12-01T08:49:07.158Z,21.70
2022-12-01T08:51:39.951Z,23.47
2022-12-01T08:54:18.688Z,22.50
2022-12-01T08:56:46.641Z,19.87
2022-12-01T08:59:14.466Z,22.20
2022-12-01T09:01:54.355Z,22.53
2022-12-01T09:04:25.305Z,23.87
2022-12-01T09:06:55.888Z,24.40
2022-12-01T09:09:28.256Z,25.37
2022-12-01T09:11:56.893Z,24.27
2022-12-01T09:14:24.695Z,25.30
2022-12-01T09:16:52.732Z,25.17
2022-12-01T09:19:24.776Z,26.63
2022-12-01T09:21:53.259Z,23.67
2022-12-01T09:24:21.279Z,27.37
2022-12-01T09:26:50.696Z,25.33
2022-12-01T09:29:18.534Z,28.00
2022-12-01T09:31:46.480Z,29.30
2022-12-01T09:34:17.974Z,26.00
2022-12-01T09:40:32.544Z,31.03
2022-12-01T09:43:36.541Z,32.60
2022-12-01T09:46:11.896Z,32.10
2022-12-01T09:48:44.221Z,32.65
2022-12-01T09:51:15.356Z,32.77
2022-12-01T09:53:45.044Z,33.43
2022-12-01T09:56:21.200Z,34.10
2022-12-01T09:58:55.384Z,33.87
2022-12-01T10:01:34.733Z,34.00
2022-12-01T10:04:11.832Z,31.07
2022-12-01T10:06:47.396Z,33.13
2022-12-01T10:09:26.522Z,31.98
2022-12-01T10:12:04.291Z,31.50
2022-12-01T10:14:36.162Z,34.23
2022-12-01T10:17:21.662Z,32.67
2022-12-01T10:20:01.158Z,35.30
2022-12-01T10:22:53.280Z,35.53
2022-12-01T10:25:24.186Z,35.23
2022-12-01T10:28:13.628Z,36.50
2022-12-01T10:30:50.515Z,36.97
2022-12-01T10:33:25.823Z,35.53
2022-12-01T10:35:54.175Z,36.45
2022-12-01T10:38:27.463Z,35.93
2022-12-01T10:41:00.823Z,38.53
2022-12-01T10:43:37.176Z,37.57
2022-12-01T10:46:19.578Z,38.20
2022-12-01T10:48:55.747Z,36.73
2022-12-01T10:51:27.536Z,35.53
2022-12-01T10:54:06.373Z,39.60
2022-12-01T10:56:34.878Z,34.00
2022-12-01T10:59:22.176Z,35.07
2022-12-01T11:01:50.491Z,39.07
2022-12-01T11:04:44.841Z,39.67
2022-12-01T11:07:26.106Z,39.97
2022-12-01T11:10:18.955Z,37.13
2022-12-01T11:12:59.092Z,34.30
2022-12-01T11:15:49.901Z,37.67
2022-12-01T11:18:33.751Z,37.77
2022-12-01T11:21:25.951Z,38.50
2022-12-01T11:23:57.599Z,38.67
2022-12-01T11:26:34.610Z,39.40
2022-12-01T11:29:27.772Z,36.97
2022-12-01T11:32:12.967Z,37.67
2022-12-01T11:34:53.224Z,35.43
2022-12-01T11:37:32.860Z,38.60
2022-12-01T11:40:16.807Z,36.77
2022-12-01T11:42:50.221Z,36.10
2022-12-01T11:45:29.610Z,39.70
2022-12-01T11:48:07.153Z,35.30
2022-12-01T11:50:37.780Z,36.13
2022-12-01T11:53:28.113Z,37.37
2022-12-01T11:56:20.735Z,34.00
2022-12-01T11:58:51.472Z,35.00
2022-12-01T12:01:40.395Z,35.13
2022-12-01T12:04:28.131Z,35.97
2022-12-01T12:07:11.072Z,37.53
2022-12-01T12:10:07.689Z,35.47
2022-12-01T12:15:38.519Z,36.33
2022-12-01T12:18:35.625Z,36.85
2022-12-01T12:21:17.781Z,35.20
2022-12-01T12:24:23.751Z,36.40
2022-12-01T12:27:09.130Z,36.93
2022-12-01T12:29:58.409Z,33.97
2022-12-01T12:32:47.512Z,33.87
2022-12-01T12:35:35.650Z,33.57
2022-12-01T12:38:28.151Z,37.67
2022-12-01T12:41:08.266Z,34.30
2022-12-01T12:43:50.525Z,37.77
2022-12-01T12:46:35.131Z,36.47
2022-12-01T12:49:30.242Z,36.93
2022-12-01T12:52:08.316Z,35.20
2022-12-01T12:54:47.713Z,39.47
2022-12-01T12:57:28.925Z,37.33
2022-12-01T13:00:04.938Z,38.20
2022-12-01T13:02:46.559Z,37.57
2022-12-01T13:05:28.084Z,38.17
2022-12-01T13:08:04.435Z,35.60
2022-12-01T13:10:40.750Z,37.60
2022-12-01T13:13:24.668Z,38.20
2022-12-01T13:15:58.046Z,37.57
2022-12-01T13:18:35.180Z,37.97
2022-12-01T13:21:04.771Z,37.83
2022-12-01T13:23:35.870Z,38.53
2022-12-01T13:26:09.721Z,37.20
2022-12-01T13:28:44.224Z,37.53
2022-12-01T13:31:16.634Z,38.50
2022-12-01T13:33:57.969Z,38.80
2022-12-01T13:36:46.343Z,38.50
2022-12-01T13:39:20.434Z,37.30
2022-12-01T13:42:00.956Z,37.50
2022-12-01T13:44:38.180Z,38.07
2022-12-01T13:47:38.729Z,41.03
2022-12-01T13:50:56.489Z,38.30
2022-12-01T13:53:35.460Z,39.30
2022-12-01T13:56:27.514Z,37.70
2022-12-01T13:58:55.772Z,37.83
2022-12-01T14:01:47.496Z,40.80
2022-12-01T14:04:27.876Z,40.27
2022-12-01T14:07:29.498Z,41.60
2022-12-01T14:10:20.545Z,38.87
2022-12-01T14:12:50.180Z,39.97
2022-12-01T14:15:31.233Z,38.60
2022-12-01T14:18:07.780Z,36.20
2022-12-01T14:20:45.910Z,39.97
2022-12-01T14:23:24.187Z,39.83
2022-12-01T14:26:09.761Z,38.77
2022-12-01T14:29:28.148Z,36.95
2022-12-01T14:32:21.862Z,40.50
2022-12-01T14:35:01.229Z,38.73
2022-12-01T14:37:42.612Z,39.00
2022-12-01T14:40:24.757Z,40.50
2022-12-01T14:43:15.308Z,37.63
2022-12-01T14:45:56.727Z,36.60
2022-12-01T14:48:37.279Z,39.17
2022-12-01T14:51:19.188Z,40.17
2022-12-01T14:53:52.104Z,38.13
2022-12-01T14:56:23.332Z,36.27
2022-12-01T14:58:54.905Z,39.50
2022-12-01T15:01:25.754Z,37.60
2022-12-01T15:03:59.257Z,38.03
2022-12-01T15:06:30.778Z,37.07
2022-12-01T15:12:10.683Z,34.30
2022-12-01T15:14:49.391Z,38.87
2022-12-01T15:17:30.227Z,39.07
2022-12-01T15:19:59.164Z,37.10
2022-12-01T15:22:31.315Z,38.77
2022-12-01T15:25:14.867Z,37.77
2022-12-01T15:27:43.712Z,34.23
2022-12-01T15:30:15.216Z,35.10
2022-12-01T15:32:45.796Z,36.20
2022-12-01T15:35:20.832Z,37.73
2022-12-01T15:37:51.530Z,37.45
2022-12-01T15:43:18.832Z,36.57
2022-12-01T15:45:53.776Z,35.10
2022-12-01T15:48:29.286Z,32.25
2022-12-01T15:51:08.718Z,34.13
2022-12-01T15:53:42.510Z,32.90
2022-12-01T15:56:13.825Z,31.60
2022-12-01T15:58:46.203Z,34.77
2022-12-01T16:01:18.127Z,32.17
2022-12-01T16:03:58.833Z,30.33
2022-12-01T16:06:30.915Z,32.07
2022-12-01T16:09:02.285Z,33.73
2022-12-01T16:11:32.513Z,32.57
2022-12-01T16:14:04.614Z,32.37
2022-12-01T16:16:40.154Z,34.57
2022-12-01T16:19:29.313Z,34.22
2022-12-01T16:22:04.905Z,32.47
2022-12-01T16:24:36.702Z,31.95
2022-12-01T16:27:18.420Z,30.93
2022-12-01T16:29:51.433Z,30.57
2022-12-01T16:32:23.420Z,34.37
2022-12-01T16:34:53.235Z,32.63
2022-12-01T16:37:22.068Z,29.83
2022-12-01T16:39:50.540Z,33.10
2022-12-01T16:42:21.465Z,31.57
2022-12-01T16:44:52.083Z,36.47
2022-12-01T16:47:23.316Z,33.07
2022-12-01T16:49:52.367Z,33.47
2022-12-01T16:55:25.950Z,32.07
2022-12-01T16:57:55.540Z,30.67
2022-12-01T17:00:24.023Z,33.83
2022-12-01T17:02:52.732Z,31.60
2022-12-01T17:05:21.535Z,32.20
2022-12-01T17:07:49.534Z,34.20
2022-12-01T17:10:17.798Z,32.70
2022-12-01T17:12:45.588Z,34.03
2022-12-01T17:15:14.931Z,34.43
2022-12-01T17:17:43.006Z,39.57
2022-12-01T17:20:11.590Z,38.30
2022-12-01T17:22:39.492Z,39.13
2022-12-01T17:25:09.694Z,35.17
2022-12-01T17:27:38.655Z,34.27
2022-12-01T17:30:08.367Z,33.03
2022-12-01T17:32:37.480Z,34.43
2022-12-01T17:35:06.610Z,34.07
2022-12-01T17:37:36.721Z,28.00
2022-12-01T17:40:06.771Z,28.97
2022-12-01T17:42:34.861Z,22.43
2022-12-01T17:45:02.718Z,22.70
2022-12-01T17:47:30.539Z,21.47
2022-12-01T17:49:59.817Z,22.60
2022-12-01T17:52:29.265Z,29.10
2022-12-01T17:54:57.976Z,26.57
2022-12-01T17:57:25.799Z,27.10
2022-12-01T17:59:53.627Z,29.13
2022-12-01T18:02:21.549Z,24.37
2022-12-01T18:04:49.858Z,27.47
2022-12-01T18:07:19.669Z,25.90
2022-12-01T18:09:47.438Z,29.23
2022-12-01T18:12:15.435Z,28.90
2022-12-01T18:14:44.272Z,22.97
2022-12-01T18:17:11.993Z,26.20
2022-12-01T18:19:40.386Z,28.60
2022-12-01T18:22:08.809Z,31.60
2022-12-01T18:24:38.140Z,28.37
2022-12-01T18:27:05.869Z,29.70
2022-12-01T18:29:33.962Z,25.67
2022-12-01T18:32:01.883Z,30.33
2022-12-01T18:34:30.147Z,29.47
2022-12-01T18:36:58.438Z,29.17
2022-12-01T18:39:26.173Z,27.53
2022-12-01T18:41:55.287Z,26.20
2022-12-01T18:44:23.326Z,28.90
2022-12-01T18:46:51.235Z,28.67
2022-12-01T18:49:19.620Z,30.03
2022-12-01T18:51:47.438Z,29.53
2022-12-01T18:54:16.368Z,28.37
2022-12-01T18:56:44.245Z,29.37
2022-12-01T18:59:16.815Z,31.03
2022-12-01T19:01:47.516Z,31.73
2022-12-01T19:04:16.631Z,30.60
2022-12-01T19:06:46.194Z,31.60
2022-12-01T19:09:16.125Z,34.73
2022-12-01T19:11:44.782Z,35.67
2022-12-01T19:14:17.726Z,34.67
2022-12-01T19:16:47.033Z,35.10
2022-12-01T19:19:14.884Z,34.80
2022-12-01T19:21:44.998Z,33.77
2022-12-01T19:24:13.179Z,36.83
2022-12-01T19:26:41.055Z,33.80
2022-12-01T19:29:08.870Z,34.40
2022-12-01T19:31:38.122Z,31.77
2022-12-01T19:34:06.423Z,31.50
2022-12-01T19:36:34.284Z,29.50
2022-12-01T19:39:04.308Z,32.50
2022-12-01T19:41:35.359Z,32.20
2022-12-01T19:44:05.384Z,32.27
2022-12-01T19:46:33.525Z,29.03
2022-12-01T19:49:03.618Z,27.10
2022-12-01T19:51:35.149Z,27.23
2022-12-01T19:54:04.587Z,27.47
2022-12-01T19:56:32.721Z,28.53
2022-12-01T19:59:00.523Z,22.47
2022-12-01T20:01:28.528Z,27.87
2022-12-01T20:03:56.464Z,29.50
2022-12-01T20:06:28.691Z,26.03
2022-12-01T20:09:00.275Z,30.20
2022-12-01T20:11:35.486Z,27.10
2022-12-01T20:14:07.585Z,29.38
2022-12-01T20:16:35.494Z,28.20
2022-12-01T20:19:05.576Z,29.80
2022-12-01T20:21:42.033Z,28.23
2022-12-01T20:24:13.341Z,27.37
2022-12-01T20:26:44.762Z,26.03
2022-12-01T20:29:16.745Z,26.40
2022-12-01T20:31:46.343Z,23.07
2022-12-01T20:34:18.674Z,27.87
2022-12-01T20:36:48.512Z,28.83
2022-12-01T20:39:16.813Z,29.40
2022-12-01T20:41:45.762Z,24.70
2022-12-01T20:44:16.254Z,27.10
2022-12-01T20:46:47.905Z,27.10
2022-12-01T20:49:17.963Z,27.80
2022-12-01T20:51:47.669Z,28.63
2022-12-01T20:54:32.740Z,28.57
2022-12-01T20:57:00.544Z,28.90
2022-12-01T20:59:29.286Z,26.47
2022-12-01T21:01:57.262Z,29.10
2022-12-01T21:04:25.240Z,28.73
2022-12-01T21:06:56.587Z,28.40
2022-12-01T21:09:25.268Z,30.97
2022-12-01T21:12:11.948Z,27.53
2022-12-01T21:14:44.526Z,27.60
2022-12-01T21:17:29.554Z,27.37
2022-12-01T21:20:09.723Z,27.67
2022-12-01T21:22:38.934Z,26.43
2022-12-01T21:25:15.666Z,27.47
2022-12-01T21:27:43.477Z,26.30
2022-12-01T21:30:17.879Z,26.97
2022-12-01T21:32:48.259Z,26.80
2022-12-01T21:35:19.911Z,27.07
2022-12-01T21:37:54.260Z,26.20
2022-12-01T21:40:25.640Z,26.90
2022-12-01T21:42:53.479Z,26.97
2022-12-01T21:45:27.000Z,24.93
2022-12-01T21:48:06.126Z,24.53
2022-12-01T21:50:33.886Z,23.27
2022-12-01T21:53:12.939Z,24.70
2022-12-01T21:55:43.582Z,24.17
2022-12-01T21:58:27.298Z,24.47
2022-12-01T22:00:57.662Z,24.23
2022-12-01T22:03:31.242Z,24.20
2022-12-01T22:06:28.699Z,23.97
2022-12-01T22:08:59.688Z,23.00
2022-12-01T22:11:29.670Z,23.77
2022-12-01T22:14:10.892Z,24.50
2022-12-01T22:16:43.259Z,22.60
2022-12-01T22:19:29.743Z,22.80
2022-12-01T22:22:20.964Z,23.63
2022-12-01T22:24:52.489Z,21.70
2022-12-01T22:27:31.489Z,23.00
2022-12-01T22:30:10.698Z,22.60
2022-12-01T22:32:52.149Z,24.10
2022-12-01T22:35:34.288Z,23.90
2022-12-01T22:38:30.916Z,22.53
2022-12-01T22:41:05.270Z,22.38
2022-12-01T22:43:44.028Z,20.57
2022-12-01T22:46:31.658Z,23.23
2022-12-01T22:49:08.304Z,25.53
2022-12-01T22:51:42.342Z,25.37
2022-12-01T22:54:31.442Z,25.60
2022-12-01T22:57:25.232Z,25.00
2022-12-01T22:59:55.130Z,25.77
2022-12-01T23:02:29.258Z,24.97
2022-12-01T23:05:00.783Z,26.00
2022-12-01T23:07:33.126Z,24.63
2022-12-01T23:10:16.654Z,25.97
2022-12-01T23:12:48.476Z,24.97
2022-12-01T23:15:27.105Z,25.47
2022-12-01T23:17:55.257Z,26.63
2022-12-01T23:20:31.886Z,24.87
2022-12-01T23:23:03.064Z,26.13
2022-12-01T23:25:33.864Z,25.60
2022-12-01T23:28:06.773Z,26.10
2022-12-01T23:30:37.219Z,25.13
2022-12-01T23:33:21.151Z,25.97
2022-12-01T23:35:55.973Z,25.20
2022-12-01T23:38:29.178Z,26.63
2022-12-01T23:41:04.218Z,24.47
2022-12-01T23:43:39.944Z,25.60
2022-12-01T23:46:12.465Z,25.90
2022-12-01T23:48:44.658Z,26.30
2022-12-01T23:51:19.973Z,25.83
2022-12-01T23:53:48.826Z,24.55
2022-12-01T23:56:21.139Z,26.20
2022-12-01T23:58:51.469Z,26.67
